Bistriţa, Rumänien

12:38 PM EET am 22. Februar 2017 (GMT +0200)
Someseni | | Change Station

Höhe 1345 ft 46.78 °N, 23.68 °E | Updated 8 minutes ago

Wolkig
Wolkig
48 °F
gefühlte 48 °F
N
2
Wind Wechselnd Wind aus Wechselnd

Heute
Max. -- | schwach -- °F
--% Regenrisiko
Gestern
Max. -- | schwach -- °F
Precip. -- inch
Druck 29.92 inch
Sichtweite 6.2 Meilen
Wolken Few 4900 ft
Taupunkt 30 °F
Feuchtigkeit 50%
Regen 0.00 inch
Schneehöhe Nicht verfügbar..
7:14 AM 5:56 PM
Letztes Viertel, 18% visible
METAR LRCL 221030Z VRB02KT 9999 FEW049 09/M01 Q1013
Druck 29.92 inch
Sichtweite 6.2 Meilen
Wolken Few 4900 ft
Taupunkt 30 °F
Feuchtigkeit 50%
Regen 0.00 inch
Schneehöhe Nicht verfügbar..
7:14 AM 5:56 PM
Letztes Viertel, 18% visible
METAR LRCL 221030Z VRB02KT 9999 FEW049 09/M01 Q1013

Get Your Daily Forecast Email!

Thanks for signing up!

Be on the lookout for a verification email in your inbox.

You'll start receiving the daily forecast at 8 AM.

×

10-Day Weather Forecast

×

Almanac

Astronomie

Feb. 22, 2017 Aufgang Untergang
Genaue Zeit
Bürgerliche Dämmerung
Nautische Dämmerung
Astronomische Dämmerung
Mond
Länge des sichtbaren Lichts
Tageslänge
Tomorrow will be .
, % of the Moon is Illuminated

Heutige Rekorde

Country Highs Country Lows

Community

WunderPhotos

Upload Photos

1,962,540 Fotos hochgeladen!

WunderBlog® & News

Nearby

Luftqualität

  Luftqualität LQ Index Schadstoff
Not available.

Schneehöhe

Station Depth Höhe

Erdbebenaktivität

Stadt Distance Mag. Time & Date
Minimum magnitude displayed is 2.5.

küstennahe Wassertemperaturen

Ort Temperatur

Stations

Wetterstationen in der Umgebung

Stationsstandort Temp. Windchill Taupunkt Feuchtigkeit Wind Precip. Höhe Aktualisiert Art